Time;durP1;ratioP1;P1;durP2;ratioP2;P2;SDS_P1;SDS_P2;PMS_P1;PMS_P2;Temp;Humidity;BMP_temperature;BMP_pressure;BME280_temperature;BME280_humidity;BME280_pressure;Samples;Min_cycle;Max_cycle;Signal;HPM_P1;HPM_P2
2022/12/02 00:01:50;;;;;;;20.50;14.63;;;20.20;39.30;;;;;;5045324;28;20406;-52
2022/12/02 00:04:21;;;;;;;19.40;14.15;;;20.20;39.30;;;;;;5045106;28;20040;-57
2022/12/02 00:06:47;;;;;;;20.38;14.38;;;20.20;39.30;;;;;;5044895;28;20047;-51
2022/12/02 00:09:31;;;;;;;22.67;14.27;;;20.20;39.20;;;;;;5044328;28;20105;-50
2022/12/02 00:11:58;;;;;;;21.23;14.23;;;20.20;39.10;;;;;;5042932;28;20362;-53
2022/12/02 00:14:28;;;;;;;18.90;13.68;;;20.10;39.00;;;;;;5038388;28;20420;-51
2022/12/02 00:16:55;;;;;;;20.55;14.07;;;20.20;39.10;;;;;;5046901;28;20052;-54
2022/12/02 00:19:22;;;;;;;17.98;13.30;;;20.20;39.00;;;;;;5043078;28;20037;-56
2022/12/02 00:21:49;;;;;;;18.83;13.77;;;20.20;39.00;;;;;;5046320;28;20047;-56
2022/12/02 00:24:17;;;;;;;20.10;13.88;;;20.20;39.00;;;;;;5041642;28;20034;-52
2022/12/02 00:26:43;;;;;;;19.02;13.50;;;20.10;38.90;;;;;;5047365;28;20159;-57
2022/12/02 00:29:09;;;;;;;20.13;14.35;;;20.20;38.90;;;;;;5039455;28;20032;-56
2022/12/02 00:31:35;;;;;;;19.80;12.82;;;20.10;38.80;;;;;;5040065;28;20047;-52
2022/12/02 00:34:02;;;;;;;19.73;13.38;;;20.20;38.90;;;;;;5023785;28;20025;-51
2022/12/02 00:36:29;;;;;;;18.30;12.82;;;20.10;38.80;;;;;;5029434;28;20368;-54
2022/12/02 00:38:56;;;;;;;16.88;12.75;;;20.10;38.80;;;;;;5023638;28;20345;-57
2022/12/02 00:41:23;;;;;;;18.65;13.48;;;20.10;38.70;;;;;;5043826;28;20027;-52
2022/12/02 00:46:34;;;;;;;;;;;20.10;38.70;;;;;;5041830;28;20443;-53
2022/12/02 00:49:06;;;;;;;20.00;13.30;;;20.10;38.70;;;;;;5041168;28;19923;-52
2022/12/02 00:51:33;;;;;;;18.27;12.85;;;20.10;38.70;;;;;;5043878;28;20029;-54
2022/12/02 00:53:59;;;;;;;17.55;12.70;;;20.10;38.70;;;;;;5044033;28;20034;-57
2022/12/02 00:56:25;;;;;;;18.92;12.48;;;20.10;38.70;;;;;;5044486;28;20426;-50
2022/12/02 00:58:51;;;;;;;17.45;12.23;;;20.00;38.60;;;;;;5016100;28;20439;-56
2022/12/02 01:01:17;;;;;;;19.70;13.25;;;20.10;38.60;;;;;;5048811;28;20051;-55
2022/12/02 01:03:43;;;;;;;18.75;12.70;;;20.10;38.60;;;;;;5053361;28;20056;-50
2022/12/02 01:06:08;;;;;;;17.25;12.40;;;20.10;38.60;;;;;;5041482;28;20422;-52
2022/12/02 01:08:34;;;;;;;17.65;12.73;;;20.00;38.50;;;;;;5048138;28;20475;-51
2022/12/02 01:11:01;;;;;;;17.83;12.82;;;20.10;38.50;;;;;;5044252;28;20098;-56
2022/12/02 01:13:27;;;;;;;18.55;12.77;;;20.00;38.40;;;;;;5048520;28;20108;-53
2022/12/02 01:15:54;;;;;;;18.42;12.50;;;20.00;38.40;;;;;;5042531;28;20386;-51
2022/12/02 01:18:20;;;;;;;17.25;12.18;;;20.00;38.40;;;;;;5045949;28;20020;-52
2022/12/02 01:20:46;;;;;;;15.30;11.90;;;20.00;38.30;;;;;;5047120;28;21108;-54
2022/12/02 01:23:12;;;;;;;16.38;12.27;;;20.00;38.40;;;;;;5049784;28;20025;-53
2022/12/02 01:25:39;;;;;;;17.30;12.73;;;20.00;38.30;;;;;;5047456;28;20020;-56
2022/12/02 01:28:05;;;;;;;16.88;12.00;;;20.00;38.30;;;;;;5028317;28;20033;-51
2022/12/02 01:30:31;;;;;;;16.95;12.07;;;20.00;38.30;;;;;;5023468;28;20026;-54
2022/12/02 01:32:57;;;;;;;17.95;12.75;;;20.00;38.20;;;;;;5029444;28;20025;-52
2022/12/02 01:35:23;;;;;;;17.98;13.15;;;20.00;38.20;;;;;;5051263;28;20045;-56
2022/12/02 01:37:49;;;;;;;17.27;12.60;;;20.00;38.20;;;;;;5031697;28;20170;-50
2022/12/02 01:40:16;;;;;;;18.08;12.80;;;20.00;38.20;;;;;;5044222;28;20514;-53
2022/12/02 01:42:44;;;;;;;17.30;12.02;;;20.00;38.10;;;;;;5043959;28;20025;-53
2022/12/02 01:45:11;;;;;;;17.38;12.30;;;20.00;38.10;;;;;;5052293;28;20056;-53
2022/12/02 01:47:38;;;;;;;17.70;12.68;;;20.00;38.10;;;;;;5030058;28;20029;-50
2022/12/02 01:50:06;;;;;;;16.52;12.30;;;20.00;38.10;;;;;;5048951;28;20119;-52
2022/12/02 01:52:32;;;;;;;17.98;12.27;;;20.00;38.10;;;;;;5024348;28;20040;-53
2022/12/02 01:54:58;;;;;;;16.55;11.25;;;20.00;38.00;;;;;;5043743;28;20045;-57
2022/12/02 01:57:29;;;;;;;15.48;12.10;;;20.00;38.10;;;;;;5047936;28;20121;-53
2022/12/02 01:59:56;;;;;;;16.85;12.00;;;20.00;38.00;;;;;;5031437;28;20037;-56
2022/12/02 02:02:31;;;;;;;18.05;11.93;;;20.00;38.00;;;;;;5021501;28;20025;-54
2022/12/02 02:05:08;;;;;;;16.73;11.82;;;20.00;38.00;;;;;;5051431;28;20042;-52
2022/12/02 02:07:36;;;;;;;15.68;11.85;;;20.00;38.00;;;;;;5023331;28;20025;-53
2022/12/02 02:10:02;;;;;;;16.90;11.38;;;20.00;38.00;;;;;;5023033;28;20413;-54
2022/12/02 02:12:29;;;;;;;16.63;12.02;;;19.90;38.00;;;;;;5048163;28;20087;-56
2022/12/02 02:14:55;;;;;;;16.65;12.07;;;19.90;38.00;;;;;;5046502;28;20033;-55
2022/12/02 02:17:22;;;;;;;17.30;11.68;;;20.00;38.00;;;;;;5026220;28;20025;-55
2022/12/02 02:19:49;;;;;;;15.88;12.00;;;19.90;37.90;;;;;;5019795;28;20381;-54
2022/12/02 02:22:22;;;;;;;16.15;12.13;;;19.90;37.90;;;;;;5005268;28;20112;-54
2022/12/02 02:24:48;;;;;;;16.80;11.77;;;19.90;37.90;;;;;;5003424;28;20125;-57
2022/12/02 02:27:16;;;;;;;16.60;11.65;;;19.90;37.90;;;;;;5003122;28;20070;-56
2022/12/02 02:29:42;;;;;;;16.88;11.75;;;19.90;37.90;;;;;;4999105;28;20029;-56
2022/12/02 02:32:09;;;;;;;15.63;11.15;;;19.90;37.90;;;;;;5003274;28;20037;-55
2022/12/02 02:34:36;;;;;;;15.60;11.55;;;19.90;37.80;;;;;;5004614;28;20344;-56
2022/12/02 02:37:01;;;;;;;15.07;11.35;;;19.90;37.90;;;;;;4999171;28;20111;-56
2022/12/02 02:39:28;;;;;;;16.13;11.52;;;19.90;37.90;;;;;;5000597;28;20077;-56
2022/12/02 02:41:55;;;;;;;16.95;11.57;;;19.90;37.90;;;;;;5004713;28;20030;-56
2022/12/02 02:44:21;;;;;;;15.63;11.10;;;19.90;37.90;;;;;;5001963;28;20053;-54
2022/12/02 02:46:47;;;;;;;15.65;10.90;;;19.90;37.80;;;;;;4998441;28;20109;-54
2022/12/02 02:49:13;;;;;;;15.15;11.00;;;19.90;37.80;;;;;;5003223;28;20184;-54
2022/12/02 02:51:39;;;;;;;17.27;11.43;;;19.90;37.80;;;;;;5006914;28;20042;-55
2022/12/02 02:54:06;;;;;;;14.43;10.63;;;19.90;37.70;;;;;;5001662;28;20051;-53
2022/12/02 02:56:32;;;;;;;16.65;11.27;;;19.80;37.70;;;;;;5005593;28;20340;-53
2022/12/02 02:58:58;;;;;;;15.18;10.25;;;19.90;37.70;;;;;;5008214;28;20045;-55
2022/12/02 03:01:31;;;;;;;16.65;10.52;;;19.90;37.70;;;;;;5000407;28;20026;-54
2022/12/02 03:04:03;;;;;;;;;;;19.90;37.60;;;;;;5005812;28;20100;-56
2022/12/02 03:06:31;;;;;;;13.77;9.50;;;19.90;37.60;;;;;;5005599;28;20035;-51
2022/12/02 03:08:58;;;;;;;16.42;11.02;;;19.90;37.60;;;;;;5005679;28;20092;-52
2022/12/02 03:11:26;;;;;;;15.15;10.15;;;19.90;37.60;;;;;;5004533;28;20033;-54
2022/12/02 03:13:53;;;;;;;14.48;9.85;;;19.80;37.50;;;;;;5007531;28;20022;-53
2022/12/02 03:16:21;;;;;;;14.60;10.00;;;19.80;37.50;;;;;;5007250;28;20073;-54
2022/12/02 03:18:49;;;;;;;15.70;10.48;;;19.80;37.50;;;;;;5005663;28;20030;-54
2022/12/02 03:21:17;;;;;;;15.02;10.43;;;19.80;37.50;;;;;;5040504;28;20069;-48
2022/12/02 03:23:44;;;;;;;14.63;9.93;;;19.80;37.40;;;;;;5045604;28;20098;-53
2022/12/02 03:26:11;;;;;;;13.80;10.05;;;19.80;37.50;;;;;;5042408;28;20029;-52
2022/12/02 03:28:37;;;;;;;14.75;10.40;;;19.80;37.30;;;;;;5043138;28;20044;-53
2022/12/02 03:31:03;;;;;;;14.45;10.02;;;19.80;37.30;;;;;;5044223;28;20032;-48
2022/12/02 03:33:29;;;;;;;13.73;9.43;;;19.80;37.30;;;;;;5044621;28;20047;-54
2022/12/02 03:35:55;;;;;;;15.25;10.60;;;19.80;37.30;;;;;;5033018;28;20049;-54
2022/12/02 03:38:21;;;;;;;14.23;10.27;;;19.80;37.30;;;;;;5046645;28;20083;-55
2022/12/02 03:40:47;;;;;;;13.60;9.40;;;19.80;37.30;;;;;;5045079;28;20065;-52
2022/12/02 03:43:13;;;;;;;13.35;9.85;;;19.80;37.20;;;;;;5039845;28;20064;-51
2022/12/02 03:45:42;;;;;;;12.80;9.60;;;19.80;37.20;;;;;;5043004;28;20108;-52
2022/12/02 03:48:09;;;;;;;13.05;9.27;;;19.80;37.20;;;;;;5044115;28;20033;-53
2022/12/02 03:50:36;;;;;;;14.25;10.07;;;19.80;37.20;;;;;;5027963;28;20443;-52
2022/12/02 03:53:02;;;;;;;15.73;9.65;;;19.70;37.20;;;;;;5049875;28;20025;-53
2022/12/02 03:55:28;;;;;;;14.50;9.73;;;19.80;37.30;;;;;;5045473;28;20040;-54
2022/12/02 03:57:54;;;;;;;15.18;10.15;;;19.70;37.30;;;;;;5035824;28;20040;-49
2022/12/02 04:00:20;;;;;;;13.93;9.63;;;19.70;37.30;;;;;;5039150;28;20035;-50
2022/12/02 04:02:45;;;;;;;13.98;9.95;;;19.70;37.30;;;;;;5045090;28;20349;-52
2022/12/02 04:05:11;;;;;;;14.90;9.93;;;19.70;37.30;;;;;;5044789;28;20415;-52
2022/12/02 04:07:37;;;;;;;13.82;9.80;;;19.70;37.30;;;;;;5045701;28;20057;-50
2022/12/02 04:10:04;;;;;;;13.98;9.40;;;19.70;37.30;;;;;;5043108;28;20083;-52
2022/12/02 04:12:30;;;;;;;13.85;9.30;;;19.70;37.20;;;;;;5039221;28;20049;-51
2022/12/02 04:14:56;;;;;;;13.57;9.75;;;19.70;37.20;;;;;;5043206;28;20398;-48
2022/12/02 04:17:21;;;;;;;13.50;9.10;;;19.70;37.20;;;;;;5042086;28;20076;-51
2022/12/02 04:19:49;;;;;;;12.90;8.82;;;19.70;37.20;;;;;;5043249;28;20098;-53
2022/12/02 04:22:15;;;;;;;13.52;8.73;;;19.70;37.10;;;;;;5049219;28;20025;-49
2022/12/02 04:24:40;;;;;;;12.10;8.38;;;19.70;37.10;;;;;;5047584;28;20094;-50
2022/12/02 04:27:06;;;;;;;11.88;8.65;;;19.70;37.10;;;;;;5047038;28;20029;-52
2022/12/02 04:29:32;;;;;;;13.05;8.70;;;19.70;37.10;;;;;;5048136;28;20103;-50
2022/12/02 04:31:58;;;;;;;13.88;8.63;;;19.70;37.00;;;;;;5048468;28;20032;-53
2022/12/02 04:34:23;;;;;;;12.25;8.80;;;19.70;37.00;;;;;;5045518;28;20119;-52
2022/12/02 04:36:49;;;;;;;11.63;7.97;;;19.70;37.00;;;;;;5043487;28;20037;-49
2022/12/02 04:39:15;;;;;;;10.80;7.63;;;19.70;37.10;;;;;;5040908;28;20425;-52
2022/12/02 04:41:41;;;;;;;12.93;8.75;;;19.70;37.10;;;;;;5044977;28;20037;-50
2022/12/02 04:44:07;;;;;;;11.05;8.13;;;19.70;37.10;;;;;;5043988;28;20044;-53
2022/12/02 04:46:32;;;;;;;13.38;8.75;;;19.60;37.00;;;;;;5048426;28;20029;-49
2022/12/02 04:48:58;;;;;;;10.88;8.40;;;19.70;37.10;;;;;;5049614;28;20048;-55
2022/12/02 04:51:24;;;;;;;12.38;8.20;;;19.60;37.00;;;;;;5046031;28;20021;-52
2022/12/02 04:53:50;;;;;;;10.73;7.78;;;19.70;37.00;;;;;;5045781;28;20468;-54
2022/12/02 04:56:15;;;;;;;10.93;7.68;;;19.60;37.00;;;;;;5054569;28;20080;-52
2022/12/02 04:58:41;;;;;;;12.48;7.85;;;19.60;37.00;;;;;;5039049;28;20452;-48
2022/12/02 05:01:07;;;;;;;12.35;8.07;;;19.60;36.90;;;;;;5047338;28;20086;-54
2022/12/02 05:03:33;;;;;;;13.30;7.88;;;19.60;37.00;;;;;;5043974;28;20437;-51
2022/12/02 05:05:58;;;;;;;10.52;7.50;;;19.60;36.90;;;;;;5048783;28;20029;-52
2022/12/02 05:08:24;;;;;;;11.05;7.53;;;19.60;36.90;;;;;;5038637;28;20021;-54
2022/12/02 05:10:50;;;;;;;10.20;7.28;;;19.60;36.90;;;;;;5044819;28;20392;-51
2022/12/02 05:13:16;;;;;;;9.95;6.93;;;19.60;36.80;;;;;;5044770;28;20033;-52
2022/12/02 05:15:42;;;;;;;10.73;7.65;;;19.60;36.80;;;;;;5046633;28;20051;-52
2022/12/02 05:18:07;;;;;;;9.75;6.75;;;19.60;36.80;;;;;;5050140;28;20029;-50
2022/12/02 05:20:33;;;;;;;10.80;7.35;;;19.60;36.80;;;;;;5047586;28;20045;-52
2022/12/02 05:22:59;;;;;;;10.38;7.47;;;19.60;36.80;;;;;;5051341;28;20410;-54
2022/12/02 05:25:25;;;;;;;9.18;6.78;;;19.60;36.80;;;;;;5043149;28;20040;-56
2022/12/02 05:27:50;;;;;;;9.18;6.43;;;19.60;36.70;;;;;;5047186;28;20139;-50
2022/12/02 05:30:16;;;;;;;10.95;6.63;;;19.60;36.70;;;;;;5044206;28;20136;-53
2022/12/02 05:32:42;;;;;;;10.60;7.32;;;19.50;36.60;;;;;;5046919;28;20791;-53
2022/12/02 05:35:08;;;;;;;10.63;7.30;;;19.60;36.70;;;;;;5047467;28;20052;-52
2022/12/02 05:37:34;;;;;;;10.68;7.18;;;19.60;36.70;;;;;;5044384;28;20103;-54
2022/12/02 05:40:00;;;;;;;10.38;7.10;;;19.60;36.70;;;;;;5053047;28;20025;-53
2022/12/02 05:42:26;;;;;;;9.68;7.20;;;19.60;36.70;;;;;;5049137;28;20025;-51
2022/12/02 05:44:52;;;;;;;9.70;7.03;;;19.60;36.70;;;;;;5046013;28;20218;-57
2022/12/02 05:47:18;;;;;;;9.43;6.65;;;19.60;36.70;;;;;;5044770;28;20029;-52
2022/12/02 05:49:45;;;;;;;9.25;6.40;;;19.60;36.70;;;;;;5041802;28;20079;-56
2022/12/02 05:52:22;;;;;;;10.73;7.22;;;19.50;36.60;;;;;;5024822;28;20033;-55
2022/12/02 05:54:51;;;;;;;11.48;6.90;;;19.50;36.60;;;;;;5041411;28;20029;-51
2022/12/02 05:57:23;;;;;;;8.68;6.28;;;19.60;36.60;;;;;;5050275;28;20112;-52
2022/12/02 05:59:50;;;;;;;8.90;7.00;;;19.50;36.60;;;;;;5045064;28;20025;-56
2022/12/02 06:02:28;;;;;;;9.20;6.60;;;19.50;36.60;;;;;;5043349;28;20111;-53
2022/12/02 06:04:55;;;;;;;9.80;6.88;;;19.50;36.60;;;;;;5047934;28;20047;-55
2022/12/02 06:07:21;;;;;;;9.35;6.88;;;19.50;36.60;;;;;;5042234;28;20076;-55
2022/12/02 06:09:49;;;;;;;10.32;7.20;;;19.50;36.60;;;;;;5043871;28;20033;-53
2022/12/02 06:12:17;;;;;;;10.32;7.22;;;19.50;36.60;;;;;;5045278;28;20040;-54
2022/12/02 06:14:53;;;;;;;9.18;6.75;;;19.50;36.60;;;;;;5027558;28;20575;-51
2022/12/02 06:17:20;;;;;;;11.60;7.28;;;19.50;36.60;;;;;;5041570;28;20945;-56
2022/12/02 06:19:52;;;;;;;9.38;6.22;;;19.50;36.60;;;;;;5047803;28;20380;-50
2022/12/02 06:22:27;;;;;;;8.80;6.18;;;19.50;36.60;;;;;;5033088;28;20060;-53
2022/12/02 06:24:55;;;;;;;9.88;6.82;;;19.50;36.60;;;;;;5047313;28;20021;-52
2022/12/02 06:27:22;;;;;;;11.40;7.03;;;19.50;36.60;;;;;;5047501;28;20029;-52
2022/12/02 06:30:03;;;;;;;9.48;6.55;;;19.50;36.70;;;;;;5045107;28;20116;-54
2022/12/02 06:32:40;;;;;;;10.13;6.93;;;19.50;36.70;;;;;;5029860;28;20341;-52
2022/12/02 06:35:21;;;;;;;9.00;6.57;;;19.50;36.60;;;;;;5048726;28;20088;-53
2022/12/02 06:37:48;;;;;;;9.15;6.85;;;19.50;36.70;;;;;;5043590;28;20032;-56
2022/12/02 06:40:24;;;;;;;8.98;6.15;;;19.40;36.60;;;;;;5040644;28;20488;-50
2022/12/02 06:42:50;;;;;;;9.13;6.22;;;19.50;36.60;;;;;;5044257;28;20445;-54
2022/12/02 06:45:30;;;;;;;10.82;6.85;;;19.40;36.60;;;;;;5038939;28;20020;-53
2022/12/02 06:48:15;;;;;;;8.27;5.88;;;19.40;36.60;;;;;;5045587;28;20413;-54
2022/12/02 06:50:42;;;;;;;8.48;6.18;;;19.40;36.60;;;;;;5044045;28;20041;-55
2022/12/02 06:53:08;;;;;;;8.13;6.25;;;19.40;36.70;;;;;;5041258;28;20025;-55
2022/12/02 06:55:36;;;;;;;8.98;6.05;;;19.40;36.80;;;;;;5041237;28;20449;-55
2022/12/02 06:58:40;;;;;;;8.43;6.22;;;19.40;36.90;;;;;;5029761;28;20039;-52
2022/12/02 07:01:24;;;;;;;8.93;6.03;;;19.40;36.90;;;;;;5045896;28;20065;-56
2022/12/02 07:04:14;;;;;;;8.10;6.07;;;19.40;37.00;;;;;;5045119;28;20025;-50
2022/12/02 07:06:43;;;;;;;8.32;5.60;;;19.40;37.00;;;;;;5046663;28;20033;-50
2022/12/02 07:09:19;;;;;;;9.73;6.90;;;19.40;37.10;;;;;;5037973;28;20160;-53
2022/12/02 07:11:53;;;;;;;8.60;5.78;;;19.40;37.10;;;;;;5075795;28;20142;-51
2022/12/02 07:14:46;;;;;;;8.50;6.25;;;19.40;37.10;;;;;;5067679;28;20041;-53
2022/12/02 07:17:15;;;;;;;8.48;5.70;;;19.40;37.10;;;;;;5059982;28;20048;-55
2022/12/02 07:19:44;;;;;;;10.63;6.22;;;19.40;37.20;;;;;;5062192;28;20537;-50
2022/12/02 07:22:17;;;;;;;9.23;6.25;;;19.40;37.20;;;;;;5062140;28;20444;-54
2022/12/02 07:25:08;;;;;;;9.25;6.43;;;19.40;37.20;;;;;;5063468;28;20036;-52
2022/12/02 07:27:37;;;;;;;10.15;6.47;;;19.40;37.20;;;;;;5053678;28;20037;-51
2022/12/02 07:30:19;;;;;;;8.68;6.25;;;19.40;37.20;;;;;;5065947;28;20349;-53
2022/12/02 07:32:45;;;;;;;8.35;6.20;;;19.30;37.10;;;;;;5065225;28;20029;-50
2022/12/02 07:35:10;;;;;;;9.02;6.18;;;19.40;37.10;;;;;;5065357;28;20047;-55
2022/12/02 07:37:36;;;;;;;9.40;6.53;;;19.30;37.00;;;;;;5063319;28;20996;-54
2022/12/02 07:40:03;;;;;;;7.97;5.60;;;19.30;37.20;;;;;;5066319;28;20025;-51
2022/12/02 07:42:28;;;;;;;8.93;6.00;;;19.30;37.20;;;;;;5063255;28;20246;-52
2022/12/02 07:44:54;;;;;;;10.15;6.65;;;19.30;37.20;;;;;;5057768;28;20045;-55
2022/12/02 07:47:20;;;;;;;8.75;6.53;;;19.30;37.20;;;;;;5054811;28;20033;-51
2022/12/02 07:49:46;;;;;;;9.07;5.80;;;19.30;37.20;;;;;;5053979;28;20082;-53
2022/12/02 07:52:12;;;;;;;9.63;6.30;;;19.30;37.20;;;;;;5033842;28;20063;-55
2022/12/02 07:54:38;;;;;;;8.63;5.78;;;19.30;37.20;;;;;;5048188;28;20035;-52
2022/12/02 07:57:03;;;;;;;8.52;5.50;;;19.30;37.20;;;;;;5065090;28;20032;-52
2022/12/02 07:59:30;;;;;;;8.48;6.13;;;19.30;37.20;;;;;;5061436;28;20021;-52
2022/12/02 08:01:57;;;;;;;8.70;5.88;;;19.40;37.40;;;;;;5065028;28;20051;-50
2022/12/02 08:04:23;;;;;;;9.93;6.13;;;19.40;37.40;;;;;;5063161;28;20040;-51
2022/12/02 08:06:50;;;;;;;7.60;5.50;;;19.40;37.40;;;;;;5061299;28;20448;-50
2022/12/02 08:09:16;;;;;;;9.55;5.65;;;19.50;37.40;;;;;;5063278;28;20095;-50
2022/12/02 08:11:42;;;;;;;8.10;5.50;;;19.50;37.30;;;;;;5060715;28;20209;-52
2022/12/02 08:14:09;;;;;;;8.00;5.45;;;19.60;37.40;;;;;;5066209;28;20033;-51
2022/12/02 08:16:35;;;;;;;9.00;5.80;;;19.60;37.30;;;;;;5069196;28;20020;-50
2022/12/02 08:19:01;;;;;;;9.98;5.68;;;19.70;37.30;;;;;;5062197;28;20021;-54
2022/12/02 08:21:27;;;;;;;11.40;5.78;;;19.70;37.20;;;;;;5059261;28;20437;-54
2022/12/02 08:23:53;;;;;;;8.75;5.93;;;19.80;37.20;;;;;;5048220;28;20025;-54
2022/12/02 08:26:19;;;;;;;9.40;5.78;;;19.90;37.10;;;;;;5052896;28;20025;-52
2022/12/02 08:28:45;;;;;;;9.68;5.50;;;20.00;37.00;;;;;;5050322;28;20036;-55
2022/12/02 08:31:11;;;;;;;8.48;5.22;;;20.00;37.00;;;;;;5051652;28;20051;-52
2022/12/02 08:33:36;;;;;;;7.40;5.35;;;20.00;36.90;;;;;;5050557;28;20475;-55
2022/12/02 08:36:03;;;;;;;8.57;5.78;;;20.10;36.80;;;;;;5051617;28;20033;-51
2022/12/02 08:38:29;;;;;;;9.43;6.05;;;20.20;36.80;;;;;;5054803;28;20025;-53
2022/12/02 08:40:54;;;;;;;9.27;5.97;;;20.20;36.70;;;;;;5053647;28;20117;-50
2022/12/02 08:43:20;;;;;;;8.85;5.93;;;20.30;36.60;;;;;;5047565;28;20381;-49
2022/12/02 08:45:46;;;;;;;9.30;6.22;;;20.30;36.60;;;;;;5049350;28;20028;-57
2022/12/02 08:48:12;;;;;;;8.52;5.93;;;20.40;36.50;;;;;;5050989;28;20499;-54
2022/12/02 08:50:38;;;;;;;8.30;5.85;;;20.40;36.50;;;;;;5053357;28;20057;-55
2022/12/02 08:53:04;;;;;;;9.85;6.40;;;20.50;36.40;;;;;;5054038;28;20033;-50
2022/12/02 08:55:30;;;;;;;10.90;6.30;;;20.50;36.30;;;;;;5054146;28;20033;-56
2022/12/02 08:57:56;;;;;;;9.77;6.35;;;20.50;36.30;;;;;;5053357;28;20047;-57
2022/12/02 09:00:22;;;;;;;10.40;6.28;;;20.60;36.30;;;;;;5050423;28;20104;-56
2022/12/02 09:02:48;;;;;;;11.15;6.80;;;20.60;36.20;;;;;;5056868;28;20120;-53
2022/12/02 09:05:14;;;;;;;11.02;6.68;;;20.70;36.20;;;;;;5042612;28;20199;-55
2022/12/02 09:07:39;;;;;;;10.80;6.97;;;20.70;36.10;;;;;;5034517;28;20476;-56
2022/12/02 09:10:07;;;;;;;10.98;6.35;;;20.70;36.00;;;;;;5056137;28;20128;-56
2022/12/02 09:12:33;;;;;;;9.90;6.32;;;20.70;35.90;;;;;;5051140;28;20099;-54
2022/12/02 09:14:59;;;;;;;11.02;6.95;;;20.80;35.90;;;;;;5046655;28;20029;-56
2022/12/02 09:17:24;;;;;;;10.35;6.78;;;20.80;35.90;;;;;;5026029;28;20462;-55
2022/12/02 09:19:50;;;;;;;11.77;6.82;;;20.80;35.80;;;;;;5046480;28;20043;-55
2022/12/02 09:22:16;;;;;;;9.85;6.13;;;20.90;35.70;;;;;;5052184;28;20044;-56
2022/12/02 09:24:42;;;;;;;11.45;7.28;;;20.90;35.70;;;;;;5056539;28;20043;-54
2022/12/02 09:27:08;;;;;;;10.95;6.95;;;20.90;35.60;;;;;;5051711;28;20025;-53
2022/12/02 09:29:34;;;;;;;10.15;6.70;;;20.90;35.50;;;;;;5029306;28;20509;-55
2022/12/02 09:32:00;;;;;;;11.57;6.80;;;20.90;36.10;;;;;;5055282;28;20470;-55
2022/12/02 09:34:25;;;;;;;10.93;6.88;;;20.90;35.40;;;;;;5042578;28;20048;-56
2022/12/02 09:36:51;;;;;;;12.43;7.30;;;20.90;35.30;;;;;;5052781;28;20029;-52
2022/12/02 09:39:17;;;;;;;11.93;7.15;;;20.90;35.30;;;;;;5039737;28;20040;-55
2022/12/02 09:41:43;;;;;;;10.18;6.68;;;21.00;35.30;;;;;;5038903;28;20035;-56
2022/12/02 09:44:10;;;;;;;10.18;6.57;;;21.00;35.20;;;;;;5044104;28;20038;-53
2022/12/02 09:46:36;;;;;;;10.52;6.53;;;21.00;35.20;;;;;;5039660;28;20025;-55
2022/12/02 09:49:02;;;;;;;12.70;7.03;;;21.00;35.10;;;;;;5051982;28;20033;-55
2022/12/02 09:51:28;;;;;;;10.95;6.20;;;21.00;35.00;;;;;;5051046;28;20056;-51
2022/12/02 09:53:54;;;;;;;10.60;6.85;;;21.00;35.10;;;;;;5050223;28;20093;-52
2022/12/02 09:56:21;;;;;;;11.07;6.22;;;21.00;36.00;;;;;;5040723;28;20033;-57
2022/12/02 09:58:49;;;;;;;10.90;6.70;;;21.00;35.40;;;;;;5054622;28;20036;-56
2022/12/02 10:01:17;;;;;;;10.82;7.07;;;21.00;35.50;;;;;;5049615;28;20037;-56
2022/12/02 10:03:50;;;;;;;11.80;7.22;;;21.00;35.50;;;;;;5055339;28;20112;-58
2022/12/02 10:06:25;;;;;;;13.43;8.57;;;21.00;35.30;;;;;;5037904;28;20548;-58
2022/12/02 10:08:56;;;;;;;14.63;8.80;;;20.90;34.60;;;;;;5041220;28;20068;-59
2022/12/02 10:11:33;;;;;;;13.45;8.13;;;20.80;34.40;;;;;;5034772;28;20045;-59
2022/12/02 10:14:05;;;;;;;14.65;8.35;;;20.70;34.60;;;;;;5045658;28;20115;-57
2022/12/02 10:16:34;;;;;;;15.85;8.10;;;20.70;34.70;;;;;;5044706;28;20036;-56
2022/12/02 10:19:03;;;;;;;12.18;7.18;;;20.70;34.70;;;;;;5050045;28;20025;-60
2022/12/02 10:21:32;;;;;;;12.00;7.47;;;20.70;34.80;;;;;;5039612;28;20029;-57
2022/12/02 10:24:00;;;;;;;10.27;6.53;;;20.70;34.90;;;;;;5047449;28;20056;-57
2022/12/02 10:26:40;;;;;;;12.82;7.30;;;20.70;35.00;;;;;;5043963;28;20037;-54
2022/12/02 10:29:12;;;;;;;11.27;6.85;;;20.70;35.10;;;;;;5045243;28;20025;-56
2022/12/02 10:31:56;;;;;;;11.43;6.40;;;20.70;35.20;;;;;;5051036;28;20041;-58
2022/12/02 10:34:28;;;;;;;11.13;7.07;;;20.70;35.20;;;;;;5030084;28;20041;-58
2022/12/02 10:36:55;;;;;;;9.68;6.55;;;20.70;35.40;;;;;;5039060;28;20349;-54
2022/12/02 10:39:21;;;;;;;10.43;6.70;;;20.70;35.30;;;;;;5030363;28;20338;-57
2022/12/02 10:42:09;;;;;;;11.18;6.68;;;20.70;35.30;;;;;;5048300;28;20040;-56
2022/12/02 10:44:38;;;;;;;13.07;6.78;;;20.70;35.20;;;;;;5029264;28;20099;-55
2022/12/02 10:47:23;;;;;;;10.13;6.43;;;20.70;35.20;;;;;;5017570;28;20034;-56
2022/12/02 10:49:58;;;;;;;10.70;6.43;;;20.70;35.20;;;;;;5036281;28;20430;-57
2022/12/02 10:52:28;;;;;;;;;;;20.70;35.10;;;;;;5048116;28;20083;-55
2022/12/02 10:54:56;;;;;;;13.77;7.70;;;20.70;35.10;;;;;;5052363;28;19931;-59
2022/12/02 10:57:26;;;;;;;11.70;6.88;;;20.70;35.00;;;;;;5049543;28;20020;-57
2022/12/02 10:59:54;;;;;;;12.07;7.05;;;20.70;35.00;;;;;;5032082;28;20052;-55
2022/12/02 11:02:29;;;;;;;11.35;7.18;;;20.80;35.00;;;;;;5049805;28;20041;-56
2022/12/02 11:05:02;;;;;;;9.75;6.32;;;20.80;34.90;;;;;;5046317;28;20108;-56
2022/12/02 11:07:28;;;;;;;13.70;7.18;;;20.80;35.00;;;;;;5044953;28;20032;-51
2022/12/02 11:09:55;;;;;;;14.68;7.15;;;20.80;35.10;;;;;;5045714;28;20040;-60
2022/12/02 11:12:31;;;;;;;12.55;6.35;;;20.80;35.10;;;;;;5045287;28;20033;-63
2022/12/02 11:14:57;;;;;;;12.93;5.53;;;20.80;35.30;;;;;;5048973;28;20025;-62
2022/12/02 11:17:51;;;;;;;13.60;6.25;;;20.80;35.30;;;;;;5046869;28;20036;-59
2022/12/02 11:20:38;;;;;;;10.52;6.28;;;20.80;35.40;;;;;;5046938;28;20051;-56
2022/12/02 11:23:14;;;;;;;9.95;5.88;;;20.90;35.30;;;;;;5046442;28;20033;-59
2022/12/02 11:25:43;;;;;;;10.63;6.03;;;20.90;35.20;;;;;;5049227;28;20063;-59
2022/12/02 11:28:27;;;;;;;11.43;6.60;;;20.90;35.10;;;;;;5051563;28;20025;-60
2022/12/02 11:31:17;;;;;;;10.20;5.93;;;20.90;35.00;;;;;;5053118;28;20471;-59
2022/12/02 11:33:43;;;;;;;11.02;6.32;;;20.90;34.90;;;;;;5052826;28;20087;-58
2022/12/02 11:36:16;;;;;;;10.15;5.97;;;20.90;34.80;;;;;;5050270;28;20072;-58
2022/12/02 11:39:00;;;;;;;11.48;6.30;;;20.90;34.70;;;;;;5053853;28;20021;-53
2022/12/02 11:41:53;;;;;;;11.30;6.80;;;20.90;34.60;;;;;;5054016;28;20048;-57
2022/12/02 11:44:21;;;;;;;10.85;6.07;;;20.90;34.50;;;;;;5054711;28;20036;-59
2022/12/02 11:47:01;;;;;;;11.50;7.35;;;20.90;34.40;;;;;;5054439;28;20025;-58
2022/12/02 11:49:39;;;;;;;10.25;6.18;;;20.90;34.30;;;;;;5036506;28;20363;-60
2022/12/02 11:52:08;;;;;;;12.43;6.60;;;20.90;34.20;;;;;;5054232;28;20021;-59
2022/12/02 11:54:48;;;;;;;14.23;6.95;;;20.90;34.20;;;;;;5046364;28;20017;-54
2022/12/02 11:57:29;;;;;;;12.27;6.35;;;20.90;34.10;;;;;;5044494;28;20032;-56
2022/12/02 11:59:56;;;;;;;13.23;7.57;;;20.90;34.10;;;;;;5056282;28;20025;-58
2022/12/02 12:02:23;;;;;;;12.93;6.60;;;20.90;34.70;;;;;;5047224;28;20025;-57
2022/12/02 12:05:04;;;;;;;11.30;7.03;;;21.00;34.10;;;;;;5045805;28;20038;-58
2022/12/02 12:07:47;;;;;;;11.52;6.45;;;20.90;34.00;;;;;;5049035;28;20395;-57
2022/12/02 12:10:28;;;;;;;13.18;7.13;;;20.90;34.00;;;;;;5045466;28;20051;-56
2022/12/02 12:13:16;;;;;;;13.27;6.95;;;20.90;34.00;;;;;;5020250;28;20030;-57
2022/12/02 12:15:57;;;;;;;11.43;6.43;;;20.90;33.90;;;;;;5020106;28;20037;-59
2022/12/02 12:18:44;;;;;;;11.65;6.75;;;20.90;33.90;;;;;;5048357;28;20028;-56
2022/12/02 12:21:32;;;;;;;11.17;6.73;;;20.90;33.80;;;;;;5048499;28;20032;-60
2022/12/02 12:24:20;;;;;;;12.77;7.15;;;20.90;33.80;;;;;;5030949;28;20083;-60
2022/12/02 12:26:51;;;;;;;12.93;7.22;;;20.90;33.90;;;;;;5055803;28;20509;-61
2022/12/02 12:29:19;;;;;;;11.38;6.28;;;20.90;34.10;;;;;;5030034;28;20126;-59
2022/12/02 12:31:45;;;;;;;12.07;6.97;;;20.90;34.20;;;;;;5027002;28;20134;-63
2022/12/02 12:34:11;;;;;;;12.50;6.68;;;21.00;34.30;;;;;;5028816;28;20052;-60
2022/12/02 12:36:38;;;;;;;10.48;6.72;;;21.00;34.30;;;;;;5031002;28;20464;-64
2022/12/02 12:39:05;;;;;;;11.75;6.43;;;21.20;34.30;;;;;;5047508;28;20021;-62
2022/12/02 12:41:32;;;;;;;14.63;6.90;;;21.20;34.10;;;;;;5048872;28;20036;-61
2022/12/02 12:43:59;;;;;;;13.20;7.15;;;21.30;34.00;;;;;;5047345;28;20040;-63
2022/12/02 12:46:25;;;;;;;10.88;6.25;;;21.40;33.80;;;;;;5044403;28;20029;-63
2022/12/02 12:48:50;;;;;;;12.57;6.00;;;21.50;33.60;;;;;;5045613;28;20017;-59
2022/12/02 12:51:17;;;;;;;10.52;6.25;;;21.60;33.50;;;;;;5047839;28;20514;-63